Time;durP1;ratioP1;P1;durP2;ratioP2;P2;SDS_P1;SDS_P2;PMS_P1;PMS_P2;Temp;Humidity;BMP_temperature;BMP_pressure;BME280_temperature;BME280_humidity;BME280_pressure;Samples;Min_cycle;Max_cycle;Signal;HPM_P1;HPM_P2
2022/03/21 00:00:42;;;;;;;12.68;6.15;;;;;;;13.35;35.84;99991.16;4921833;29;20016;-50
2022/03/21 00:03:09;;;;;;;10.07;6.40;;;;;;;13.51;35.32;99975.09;4920504;29;20032;-51
2022/03/21 00:05:36;;;;;;;9.02;5.50;;;;;;;13.70;35.82;99981.56;4920385;29;20063;-51
2022/03/21 00:08:02;;;;;;;8.18;5.60;;;;;;;13.84;34.91;99976.41;4921759;29;20032;-50
2022/03/21 00:10:32;;;;;;;11.43;6.65;;;;;;;13.77;34.59;99977.16;4920451;29;20033;-51
2022/03/21 00:12:59;;;;;;;9.40;5.80;;;;;;;13.84;34.67;99981.69;4921728;29;20107;-49
2022/03/21 00:15:25;;;;;;;11.32;7.45;;;;;;;13.89;34.67;99977.47;4921961;29;20402;-50
2022/03/21 00:17:51;;;;;;;10.45;6.72;;;;;;;13.93;34.35;99980.56;4920338;29;20028;-50
2022/03/21 00:20:16;;;;;;;12.75;8.30;;;;;;;13.90;34.13;99984.38;4920153;29;20040;-51
2022/03/21 00:22:42;;;;;;;12.88;7.75;;;;;;;13.85;34.20;99978.06;4921610;29;20028;-50
2022/03/21 00:25:09;;;;;;;9.57;6.97;;;;;;;13.84;34.40;99974.56;4920171;29;20035;-50
2022/03/21 00:27:36;;;;;;;12.90;6.78;;;;;;;13.71;34.87;99982.38;4921619;29;20099;-51
2022/03/21 00:30:04;;;;;;;9.90;6.35;;;;;;;13.75;34.36;99991.56;4920219;29;20040;-50
2022/03/21 00:32:30;;;;;;;10.82;6.30;;;;;;;13.90;34.17;99981.72;4921521;29;20107;-50
2022/03/21 00:34:56;;;;;;;9.48;6.38;;;;;;;13.97;33.83;99974.69;4920177;29;20123;-50
2022/03/21 00:37:26;;;;;;;13.52;6.57;;;;;;;14.04;34.17;99982.66;4920186;29;20032;-49
2022/03/21 00:39:53;;;;;;;13.93;6.32;;;;;;;14.03;33.59;99990.78;4921507;29;20055;-50
2022/03/21 00:42:20;;;;;;;9.30;5.80;;;;;;;13.93;33.99;99991.13;4920183;29;20419;-50
2022/03/21 00:44:46;;;;;;;15.68;6.10;;;;;;;13.84;33.75;99989.59;4920022;29;20062;-50
2022/03/21 00:47:14;;;;;;;11.05;5.90;;;;;;;13.68;34.31;99988.88;4920109;29;20064;-50
2022/03/21 00:49:41;;;;;;;10.40;6.38;;;;;;;13.61;34.43;99984.53;4921365;29;20060;-50
2022/03/21 00:52:08;;;;;;;7.88;6.68;;;;;;;13.60;34.07;99988.97;4921342;29;20024;-50
2022/03/21 00:54:34;;;;;;;12.27;6.78;;;;;;;13.53;34.84;99983.63;4921350;29;20118;-50
2022/03/21 00:57:00;;;;;;;11.45;6.20;;;;;;;13.53;34.55;99983.63;4920024;29;20115;-50
2022/03/21 00:59:25;;;;;;;9.38;6.55;;;;;;;13.36;34.23;99985.69;4921386;29;20461;-50
2022/03/21 01:01:51;;;;;;;11.07;6.35;;;;;;;13.27;34.56;99986.78;4918828;29;20024;-50
2022/03/21 01:04:17;;;;;;;11.90;6.00;;;;;;;13.33;34.69;99988.69;4918263;29;20024;-50
2022/03/21 01:06:42;;;;;;;10.93;6.53;;;;;;;13.43;34.37;99987.59;4917010;29;20028;-50
2022/03/21 01:09:11;;;;;;;12.35;7.20;;;;;;;13.33;34.60;99988.69;4918269;29;20410;-50
2022/03/21 01:11:36;;;;;;;11.05;6.53;;;;;;;13.25;34.46;99987.97;4918194;29;20055;-50
2022/03/21 01:14:02;;;;;;;10.57;6.25;;;;;;;13.21;34.57;99984.06;4916864;29;20123;-50
2022/03/21 01:16:28;;;;;;;8.85;6.00;;;;;;;13.20;34.82;99988.53;4916806;29;20525;-51
2022/03/21 01:18:54;;;;;;;11.40;8.75;;;;;;;13.27;34.46;99983.31;4916734;29;20083;-50
2022/03/21 01:21:19;;;;;;;8.50;6.50;;;;;;;13.31;34.79;99987.25;4916446;29;20055;-50
2022/03/21 01:23:45;;;;;;;8.13;6.47;;;;;;;13.28;34.53;99984.94;4916706;29;20024;-50
2022/03/21 01:26:11;;;;;;;9.95;7.00;;;;;;;13.17;34.18;99980.97;4917856;29;20091;-50
2022/03/21 01:28:37;;;;;;;11.93;6.70;;;;;;;13.06;34.93;99984.91;4917916;29;20059;-50
2022/03/21 01:31:02;;;;;;;10.48;6.90;;;;;;;12.98;34.65;99990.28;4916493;29;20135;-50
2022/03/21 01:33:30;;;;;;;12.57;6.53;;;;;;;12.95;35.12;99998.53;4916489;29;20507;-50
2022/03/21 01:35:56;;;;;;;16.15;7.13;;;;;;;12.91;35.44;99992.00;4917711;29;20031;-50
2022/03/21 01:38:22;;;;;;;13.02;6.70;;;;;;;13.12;35.91;99991.25;4916731;29;20029;-50
2022/03/21 01:40:48;;;;;;;13.27;7.43;;;;;;;13.34;35.01;99986.84;4916347;29;20484;-50
2022/03/21 01:43:13;;;;;;;19.63;7.38;;;;;;;13.57;34.95;99986.72;4917654;29;20032;-50
2022/03/21 01:45:39;;;;;;;13.40;5.90;;;;;;;13.86;34.37;99985.75;4917471;29;20024;-49
2022/03/21 01:48:06;;;;;;;14.80;7.80;;;;;;;13.96;34.01;99974.88;4916242;29;20447;-50
2022/03/21 01:50:32;;;;;;;10.27;6.65;;;;;;;14.09;33.82;99982.13;4916245;29;20115;-50
2022/03/21 01:55:44;;;;;;;9.48;6.82;;;;;;;14.37;32.91;99987.41;4917684;29;20043;-50
2022/03/21 01:58:11;;;;;;;12.18;6.50;;;;;;;14.43;33.09;99981.34;4916103;29;20023;-50
2022/03/21 02:00:37;;;;;;;12.70;8.65;;;;;;;14.45;32.98;99981.16;4917302;29;20028;-49
2022/03/21 02:03:03;;;;;;;13.38;7.00;;;;;;;14.44;33.20;99988.25;4916023;29;20028;-49
2022/03/21 02:05:31;;;;;;;12.23;6.72;;;;;;;14.37;32.96;99982.91;4915866;29;20471;-49
2022/03/21 02:07:57;;;;;;;16.30;7.75;;;;;;;14.16;32.61;99983.78;4917176;29;20031;-50
2022/03/21 02:10:23;;;;;;;11.48;6.82;;;;;;;13.92;32.73;99982.38;4915809;29;20127;-51
2022/03/21 02:12:48;;;;;;;11.63;6.45;;;;;;;13.69;33.20;99982.56;4916815;29;20031;-50
2022/03/21 02:15:14;;;;;;;13.32;8.25;;;;;;;13.50;33.50;99986.66;4917033;29;20566;-49
2022/03/21 02:17:45;;;;;;;8.70;6.47;;;;;;;13.26;33.96;99989.59;4915771;29;20024;-49
2022/03/21 02:20:11;;;;;;;9.95;6.03;;;;;;;13.02;34.41;99988.91;4915540;29;20127;-50
2022/03/21 02:23:05;;;;;;;10.50;6.68;;;;;;;12.72;34.99;99990.75;4916929;29;20028;-50
2022/03/21 02:25:34;;;;;;;12.95;7.28;;;;;;;12.51;34.99;99994.09;4916840;29;20020;-49
2022/03/21 02:28:06;;;;;;;10.85;6.70;;;;;;;12.40;35.38;99990.09;4916830;29;20031;-49
2022/03/21 02:30:34;;;;;;;10.48;6.53;;;;;;;12.27;35.68;99982.00;4915487;29;20035;-50
2022/03/21 02:33:03;;;;;;;13.90;7.35;;;;;;;12.12;35.72;99989.88;4915470;29;20025;-50
2022/03/21 02:35:30;;;;;;;13.80;6.93;;;;;;;11.85;36.60;99988.56;4915378;29;20028;-50
2022/03/21 02:37:57;;;;;;;10.60;6.80;;;;;;;11.61;37.25;99985.13;4915292;29;20099;-50
2022/03/21 02:40:24;;;;;;;9.40;6.72;;;;;;;11.44;37.32;99986.22;4916591;29;20051;-50
2022/03/21 02:42:50;;;;;;;12.73;7.15;;;;;;;11.40;37.73;99985.75;4915252;29;20032;-49
2022/03/21 02:45:16;;;;;;;12.13;7.10;;;;;;;11.38;37.79;99988.53;4915100;29;20074;-49
2022/03/21 02:47:42;;;;;;;10.15;7.00;;;;;;;11.29;38.12;99986.13;4915443;29;20493;-49
2022/03/21 02:50:12;;;;;;;12.82;7.05;;;;;;;11.26;38.31;99984.66;4915101;29;20036;-50
2022/03/21 02:52:39;;;;;;;11.70;7.85;;;;;;;11.14;38.29;99980.78;4916423;29;20030;-48
2022/03/21 02:55:05;;;;;;;14.73;7.90;;;;;;;11.00;38.62;99987.59;4916350;29;20049;-50
2022/03/21 02:57:32;;;;;;;11.10;7.07;;;;;;;10.88;38.97;99981.06;4916323;29;20032;-49
2022/03/21 02:59:59;;;;;;;11.98;7.47;;;;;;;10.81;39.01;99988.00;4916287;29;20029;-50
2022/03/21 03:02:25;;;;;;;13.25;7.72;;;;;;;10.74;39.34;99988.66;4914942;29;20032;-50
2022/03/21 03:04:52;;;;;;;18.48;8.68;;;;;;;10.63;39.50;99994.28;4914805;29;20026;-48
2022/03/21 03:07:18;;;;;;;13.50;8.88;;;;;;;10.64;39.39;99982.78;4914848;29;20032;-50
2022/03/21 03:09:43;;;;;;;11.50;7.72;;;;;;;10.56;39.98;99988.91;4914813;29;20087;-50
2022/03/21 03:12:09;;;;;;;14.32;7.93;;;;;;;10.50;39.97;99980.84;4916052;29;20500;-50
2022/03/21 03:14:35;;;;;;;9.55;7.45;;;;;;;10.53;39.67;99981.34;4916048;29;20059;-49
2022/03/21 03:17:01;;;;;;;13.65;7.45;;;;;;;10.55;40.10;99981.19;4916030;29;20439;-50
2022/03/21 03:19:28;;;;;;;13.00;7.85;;;;;;;10.82;39.31;99981.75;4914312;29;20111;-51
2022/03/21 03:21:55;;;;;;;9.45;7.03;;;;;;;10.95;39.24;99982.84;4914720;29;20036;-49
2022/03/21 03:24:24;;;;;;;13.63;7.25;;;;;;;11.11;38.87;99984.59;4915537;29;20063;-50
2022/03/21 03:26:50;;;;;;;11.27;7.05;;;;;;;11.07;38.79;99979.88;4914322;29;20064;-49
2022/03/21 03:29:16;;;;;;;11.05;6.97;;;;;;;11.02;39.26;99982.16;4914573;29;20036;-50
2022/03/21 03:31:42;;;;;;;13.18;7.00;;;;;;;11.12;38.94;99982.78;4915739;29;20503;-50
2022/03/21 03:34:09;;;;;;;12.63;7.97;;;;;;;11.23;38.28;99987.66;4914537;29;20481;-50
2022/03/21 03:36:35;;;;;;;10.25;6.90;;;;;;;11.37;38.30;99986.91;4915738;29;20083;-49
2022/03/21 03:39:01;;;;;;;13.18;7.65;;;;;;;11.46;38.18;99992.13;4914401;29;20498;-49
2022/03/21 03:41:27;;;;;;;14.73;7.60;;;;;;;11.45;37.75;99985.22;4914399;29;20044;-50
2022/03/21 03:43:53;;;;;;;16.98;7.28;;;;;;;11.48;37.63;99990.13;4914433;29;20491;-51
2022/03/21 03:46:19;;;;;;;22.45;8.20;;;;;;;11.43;37.59;99982.78;4898593;29;20032;-49
2022/03/21 03:48:46;;;;;;;13.68;7.43;;;;;;;11.37;37.95;99989.56;4915887;29;20408;-49
2022/03/21 03:51:12;;;;;;;10.65;6.72;;;;;;;11.35;38.12;99994.16;4914305;29;20024;-49
2022/03/21 03:53:40;;;;;;;11.50;7.35;;;;;;;11.26;37.87;99992.56;4915549;29;20032;-48
2022/03/21 03:56:09;;;;;;;9.85;7.30;;;;;;;11.18;38.45;99995.22;4914258;29;20024;-50
2022/03/21 03:58:38;;;;;;;16.52;8.75;;;;;;;11.15;38.84;99993.78;4914263;29;20056;-49
2022/03/21 04:01:06;;;;;;;11.57;8.07;;;;;;;11.32;38.82;99996.31;4915507;29;20034;-50
2022/03/21 04:03:47;;;;;;;12.02;7.35;;;;;;;11.49;38.72;99997.88;4915514;29;20037;-50
2022/03/21 04:06:22;;;;;;;12.38;7.78;;;;;;;11.46;38.72;99995.56;4915431;29;20063;-50
2022/03/21 04:08:50;;;;;;;18.67;8.18;;;;;;;11.34;39.20;99994.31;4915497;29;20111;-49
2022/03/21 04:11:16;;;;;;;13.10;7.32;;;;;;;11.36;39.34;100000.22;4914175;29;20107;-49
2022/03/21 04:13:43;;;;;;;13.35;8.32;;;;;;;11.45;39.55;100001.84;4915374;29;20036;-50
2022/03/21 04:16:09;;;;;;;12.00;8.27;;;;;;;11.48;39.05;99998.84;4915437;29;20025;-49
2022/03/21 04:18:36;;;;;;;9.07;6.93;;;;;;;11.51;39.11;100000.28;4914131;29;20028;-50
2022/03/21 04:21:03;;;;;;;15.20;8.75;;;;;;;11.50;39.12;100002.13;4913900;29;20515;-50
2022/03/21 04:23:28;;;;;;;17.25;8.18;;;;;;;11.44;39.26;100000.19;4915345;29;20024;-50
2022/03/21 04:25:54;;;;;;;11.75;7.65;;;;;;;11.36;39.34;100008.94;4915188;29;20570;-50
2022/03/21 04:28:20;;;;;;;13.32;8.07;;;;;;;11.30;39.50;100006.19;4915336;29;20029;-49
2022/03/21 04:30:46;;;;;;;15.60;8.00;;;;;;;11.21;39.48;100000.16;4915225;29;20029;-49
2022/03/21 04:33:12;;;;;;;15.88;8.15;;;;;;;11.31;39.83;100005.19;4915265;29;20028;-50
2022/03/21 04:35:39;;;;;;;10.25;7.47;;;;;;;11.35;39.42;100006.50;4915194;29;20495;-50
2022/03/21 04:38:16;;;;;;;13.60;8.95;;;;;;;11.29;39.57;100000.09;4917520;29;20031;-50
2022/03/21 04:40:44;;;;;;;12.88;7.80;;;;;;;11.26;39.50;100005.69;4918808;29;20032;-50
2022/03/21 04:43:13;;;;;;;13.88;9.68;;;;;;;11.23;39.74;100011.31;4917480;29;20028;-49
2022/03/21 04:45:40;;;;;;;20.17;13.13;;;;;;;11.24;39.92;100004.25;4918859;29;20486;-49
2022/03/21 04:48:06;;;;;;;13.35;9.60;;;;;;;11.24;39.88;100004.25;4918721;29;20020;-50
2022/03/21 04:50:32;;;;;;;14.85;8.68;;;;;;;11.28;39.83;100002.91;4918578;29;20540;-50
2022/03/21 04:52:59;;;;;;;15.23;8.25;;;;;;;11.29;39.91;100013.25;4917274;29;20399;-49
2022/03/21 04:55:25;;;;;;;10.93;7.70;;;;;;;11.24;40.40;100010.31;4918514;29;20039;-50
2022/03/21 04:57:51;;;;;;;17.08;8.95;;;;;;;11.18;40.44;100008.38;4917203;29;20028;-49
2022/03/21 05:00:17;;;;;;;14.15;8.38;;;;;;;11.16;40.60;100012.97;4917107;29;20032;-50
2022/03/21 05:02:43;;;;;;;14.13;8.10;;;;;;;11.33;40.82;100011.91;4917099;29;20032;-48
2022/03/21 05:05:09;;;;;;;19.40;9.20;;;;;;;11.44;40.16;100021.22;4916973;29;20462;-50
2022/03/21 05:07:43;;;;;;;17.58;8.50;;;;;;;11.46;40.44;100018.41;4917012;29;20439;-49
2022/03/21 05:10:15;;;;;;;15.10;8.82;;;;;;;11.62;39.72;100026.19;4917000;29;20031;-49
2022/03/21 05:12:41;;;;;;;9.68;8.05;;;;;;;11.53;39.57;100019.34;4918225;29;20540;-50
2022/03/21 05:15:07;;;;;;;18.50;8.88;;;;;;;11.35;39.82;100025.69;4918212;29;20039;-50
2022/03/21 05:17:37;;;;;;;12.60;9.40;;;;;;;10.99;40.07;100018.28;4918038;29;20032;-50
2022/03/21 05:20:37;;;;;;;14.20;8.63;;;;;;;10.73;40.64;100025.63;4917850;29;20522;-50
2022/03/21 05:31:09;;;;;;;16.30;8.35;;;;;;;10.13;41.95;100032.84;4917926;29;20086;-49
2022/03/21 05:36:25;;;;;;;19.92;8.82;;;;;;;9.87;42.70;100030.38;4918058;29;20043;-49
2022/03/21 05:38:51;;;;;;;17.23;8.70;;;;;;;9.91;42.99;100044.00;4917857;29;20036;-49
2022/03/21 05:41:17;;;;;;;18.52;9.18;;;;;;;10.11;43.51;100045.31;4916388;29;20028;-49
2022/03/21 05:43:43;;;;;;;18.13;9.02;;;;;;;10.25;42.94;100045.66;4917680;29;20147;-50
2022/03/21 05:46:09;;;;;;;13.07;8.30;;;;;;;10.46;43.05;100034.66;4916268;29;20111;-50
2022/03/21 05:48:51;;;;;;;14.18;8.98;;;;;;;10.66;42.31;100043.00;4915586;29;20081;-50
2022/03/21 05:51:18;;;;;;;12.18;8.35;;;;;;;10.67;41.75;100042.84;4917579;29;20039;-49
2022/03/21 05:53:48;;;;;;;17.63;8.52;;;;;;;10.68;41.65;100036.59;4917492;29;20024;-49
2022/03/21 05:56:14;;;;;;;16.35;9.50;;;;;;;10.71;42.22;100040.72;4917709;29;20525;-49
2022/03/21 05:58:41;;;;;;;17.90;9.00;;;;;;;10.79;41.49;100044.13;4916135;29;20028;-49
2022/03/21 06:01:08;;;;;;;13.80;8.88;;;;;;;10.84;42.55;100054.13;4917306;29;20533;-50
2022/03/21 06:03:34;;;;;;;12.80;9.13;;;;;;;10.91;41.43;100052.47;4917316;29;20021;-50
2022/03/21 06:06:00;;;;;;;9.52;7.68;;;;;;;10.89;40.99;100051.81;4915875;29;20032;-49
2022/03/21 06:08:27;;;;;;;14.10;8.80;;;;;;;10.91;41.00;100052.47;4917145;29;20111;-49
2022/03/21 06:11:13;;;;;;;14.32;8.82;;;;;;;11.02;40.96;100058.34;4917159;29;20502;-49
2022/03/21 06:13:49;;;;;;;;;;;;;;;11.22;40.51;100058.78;4917268;29;20508;-50
2022/03/21 06:16:16;;;;;;;14.27;9.20;;;;;;;11.38;40.10;100056.06;4917146;29;19962;-49
2022/03/21 06:18:42;;;;;;;18.00;9.40;;;;;;;11.54;39.48;100066.50;4917017;29;20036;-50
2022/03/21 06:21:09;;;;;;;23.58;9.30;;;;;;;11.64;39.24;100063.66;4916820;29;20562;-49
2022/03/21 06:23:36;;;;;;;16.55;8.68;;;;;;;11.66;39.30;100063.50;4915689;29;20024;-50
2022/03/21 06:26:02;;;;;;;15.52;8.82;;;;;;;11.85;39.40;100068.31;4915505;29;20508;-49
2022/03/21 06:28:29;;;;;;;13.27;8.63;;;;;;;12.08;39.11;100059.63;4916858;29;20103;-50
2022/03/21 06:30:56;;;;;;;20.23;9.02;;;;;;;12.41;38.95;100065.44;4915731;29;20087;-50
2022/03/21 06:33:28;;;;;;;16.20;9.80;;;;;;;12.91;39.22;100055.25;4916783;29;20031;-50
2022/03/21 06:35:55;;;;;;;14.27;8.40;;;;;;;13.18;37.88;100064.34;4916770;29;20040;-50
2022/03/21 06:38:21;;;;;;;15.80;8.43;;;;;;;13.34;38.16;100068.59;4916736;29;20506;-50
2022/03/21 06:40:47;;;;;;;14.30;9.23;;;;;;;14.00;37.35;100057.97;4916630;29;20028;-50
2022/03/21 06:43:17;;;;;;;17.70;9.90;;;;;;;15.14;36.26;100071.00;4916595;29;20027;-50
2022/03/21 06:45:43;;;;;;;15.43;9.43;;;;;;;16.25;33.90;100066.47;4916463;29;20417;-49
2022/03/21 06:48:09;;;;;;;23.75;9.00;;;;;;;17.02;32.49;100061.50;4916499;29;20031;-50
2022/03/21 06:50:35;;;;;;;16.83;9.57;;;;;;;17.25;31.98;100061.84;4916452;29;20043;-50
2022/03/21 06:53:02;;;;;;;18.65;9.23;;;;;;;17.53;31.48;100071.31;4916426;29;20463;-51
2022/03/21 06:55:27;;;;;;;15.73;9.25;;;;;;;17.63;30.79;100076.19;4916407;29;20410;-50
2022/03/21 06:57:53;;;;;;;13.57;8.85;;;;;;;17.89;30.45;100073.41;4916315;29;20028;-51
2022/03/21 07:00:19;;;;;;;19.95;9.65;;;;;;;18.14;30.08;100072.63;4914147;29;20036;-50
2022/03/21 07:02:45;;;;;;;14.82;8.95;;;;;;;18.81;29.71;100077.38;4916287;29;20027;-50
2022/03/21 07:05:11;;;;;;;19.13;11.20;;;;;;;19.31;29.01;100075.38;4916100;29;20028;-50
2022/03/21 07:07:37;;;;;;;15.68;8.82;;;;;;;19.44;27.00;100077.09;4914870;29;20054;-51
2022/03/21 07:10:07;;;;;;;14.18;8.75;;;;;;;19.49;26.54;100076.41;4914771;29;20040;-50
2022/03/21 07:12:34;;;;;;;15.88;9.43;;;;;;;19.88;25.54;100071.59;4916147;29;20055;-50
2022/03/21 07:15:01;;;;;;;13.10;8.70;;;;;;;20.31;25.07;100081.22;4916074;29;20028;-51
2022/03/21 07:17:28;;;;;;;19.45;9.55;;;;;;;20.85;24.63;100078.47;4916038;29;20494;-50
2022/03/21 07:19:54;;;;;;;11.90;8.23;;;;;;;21.54;23.77;100083.91;4915745;29;20103;-50
2022/03/21 07:22:19;;;;;;;22.05;8.85;;;;;;;22.05;23.10;100081.34;4916002;29;20036;-51
2022/03/21 07:24:45;;;;;;;12.07;8.35;;;;;;;22.10;22.78;100086.78;4914575;29;20055;-51
2022/03/21 07:27:12;;;;;;;18.48;8.77;;;;;;;21.37;23.41;100089.16;4915835;29;20487;-50
2022/03/21 07:29:38;;;;;;;21.23;9.77;;;;;;;20.79;23.76;100096.22;4915854;29;20027;-51
2022/03/21 07:32:04;;;;;;;20.95;9.48;;;;;;;20.71;24.01;100085.91;4915763;29;20028;-50
2022/03/21 07:34:30;;;;;;;31.23;8.82;;;;;;;20.86;23.77;100090.75;4914485;29;20051;-51
2022/03/21 07:36:56;;;;;;;23.25;9.60;;;;;;;20.61;24.22;100093.69;4915783;29;20056;-50
2022/03/21 07:39:22;;;;;;;20.88;9.00;;;;;;;19.99;24.64;100094.81;4914439;29;20406;-50
2022/03/21 07:41:47;;;;;;;31.25;10.77;;;;;;;19.39;25.63;100095.56;4915695;29;20036;-50
2022/03/21 07:47:17;;;;;;;26.77;9.60;;;;;;;19.19;26.20;100103.78;4914335;29;20024;-51
2022/03/21 07:47:17;;;;;;;38.88;8.68;;;;;;;19.54;25.63;100090.69;4915644;29;20040;-50
2022/03/21 07:49:46;;;;;;;15.88;7.93;;;;;;;20.09;24.75;100105.72;4915714;29;20495;-50
2022/03/21 07:52:17;;;;;;;16.20;8.13;;;;;;;20.79;24.15;100093.56;4915577;29;20032;-50
2022/03/21 07:54:43;;;;;;;13.82;7.70;;;;;;;21.56;23.12;100089.81;4915648;29;20426;-51
2022/03/21 07:57:08;;;;;;;25.42;8.13;;;;;;;22.28;24.11;100097.28;4915534;29;20032;-51
2022/03/21 07:59:35;;;;;;;74.18;11.35;;;;;;;22.47;25.06;100089.78;4915556;29;20020;-51
2022/03/21 08:02:04;;;;;;;16.40;7.88;;;;;;;22.62;21.15;100094.59;4915498;29;20032;-51
2022/03/21 08:04:31;;;;;;;14.85;7.47;;;;;;;22.68;21.03;100092.81;4915424;29;20395;-51
2022/03/21 08:06:58;;;;;;;19.88;7.97;;;;;;;22.95;20.78;100098.25;4915510;29;20028;-51
2022/03/21 08:09:24;;;;;;;15.63;7.55;;;;;;;23.35;20.58;100091.81;4915458;29;20095;-51
2022/03/21 08:11:50;;;;;;;17.75;8.63;;;;;;;23.49;20.68;100086.88;4917242;29;20035;-51
2022/03/21 08:14:17;;;;;;;13.43;8.23;;;;;;;23.60;19.61;100088.59;4919214;29;20028;-51
2022/03/21 08:16:43;;;;;;;20.40;9.25;;;;;;;23.66;20.16;100082.25;4919169;29;20032;-51
2022/03/21 08:19:09;;;;;;;12.15;8.63;;;;;;;23.61;20.18;100094.78;4919203;29;20031;-50
2022/03/21 08:21:34;;;;;;;16.55;7.80;;;;;;;23.89;20.13;100088.41;4918925;29;20049;-51
2022/03/21 08:24:00;;;;;;;13.02;7.68;;;;;;;24.18;19.11;100091.59;4919159;29;20101;-50
2022/03/21 08:26:27;;;;;;;29.40;9.80;;;;;;;24.08;19.65;100095.00;4917643;29;20083;-51
2022/03/21 08:28:52;;;;;;;12.02;7.28;;;;;;;23.88;18.95;100094.81;4919014;29;20401;-51
2022/03/21 08:31:18;;;;;;;10.88;7.05;;;;;;;23.60;18.91;100096.66;4918914;29;20021;-51
2022/03/21 08:33:44;;;;;;;18.67;9.00;;;;;;;23.29;20.02;100096.31;4918968;29;20020;-51
2022/03/21 08:36:11;;;;;;;14.32;7.88;;;;;;;23.65;20.36;100112.00;4917605;29;20028;-51
2022/03/21 08:38:37;;;;;;;14.95;7.57;;;;;;;24.45;19.30;100109.53;4918867;29;20032;-51
2022/03/21 08:41:02;;;;;;;10.65;6.63;;;;;;;24.88;18.26;100092.38;4917534;29;20039;-51
2022/03/21 08:43:28;;;;;;;8.82;6.88;;;;;;;24.77;18.47;100100.63;4918734;29;20020;-50
2022/03/21 08:45:54;;;;;;;40.17;9.40;;;;;;;24.67;23.11;100090.63;4918632;29;20372;-51
2022/03/21 08:49:23;;;;;;;17.80;7.78;;;;;;;24.80;18.81;100095.56;4918926;29;20075;-51
2022/03/21 08:51:05;;;;;;;14.63;7.93;;;;;;;25.21;18.61;100090.44;4918407;29;20028;-50
2022/03/21 08:53:31;;;;;;;20.55;8.90;;;;;;;25.61;17.89;100094.28;4918614;29;20510;-50
2022/03/21 08:55:56;;;;;;;20.27;12.45;;;;;;;26.00;17.27;100082.31;4918498;29;20107;-50
2022/03/21 08:58:22;;;;;;;12.75;7.88;;;;;;;26.11;17.18;100091.97;4917236;29;20032;-51
2022/03/21 09:00:48;;;;;;;17.45;8.88;;;;;;;25.98;17.21;100095.19;4918503;29;20505;-51
2022/03/21 09:03:14;;;;;;;17.83;8.07;;;;;;;25.73;17.13;100107.50;4918433;29;20032;-51
2022/03/21 09:05:39;;;;;;;14.90;7.20;;;;;;;25.60;17.05;100092.69;4918301;29;20514;-51
2022/03/21 09:08:08;;;;;;;12.40;6.53;;;;;;;25.17;17.65;100101.91;4918347;29;20020;-51
2022/03/21 09:10:34;;;;;;;8.13;6.10;;;;;;;25.19;17.92;100094.41;4918327;29;20029;-50
2022/03/21 09:13:00;;;;;;;9.57;6.97;;;;;;;25.59;17.27;100101.81;4918290;29;20035;-50
2022/03/21 09:15:26;;;;;;;10.38;6.90;;;;;;;25.75;17.37;100094.59;4918482;29;20043;-50
2022/03/21 09:17:51;;;;;;;11.82;6.65;;;;;;;25.86;16.58;100093.53;4918247;29;20394;-50
2022/03/21 09:20:17;;;;;;;9.05;6.45;;;;;;;25.62;16.83;100101.31;4917875;29;20096;-50
2022/03/21 09:22:43;;;;;;;11.35;7.25;;;;;;;25.68;17.76;100094.06;4917052;29;20056;-50
2022/03/21 09:25:09;;;;;;;10.20;7.15;;;;;;;25.40;16.90;100100.69;4917969;29;20075;-50
2022/03/21 09:27:38;;;;;;;9.10;6.65;;;;;;;25.26;17.26;100095.81;4918006;29;20111;-51
2022/03/21 09:30:06;;;;;;;12.30;7.00;;;;;;;24.78;17.68;100094.19;4917897;29;20032;-51
2022/03/21 09:32:31;;;;;;;12.25;6.97;;;;;;;24.62;18.47;100093.28;4917878;29;20031;-50
2022/03/21 09:34:58;;;;;;;9.68;7.28;;;;;;;25.08;17.66;100088.97;4917838;29;20024;-50
2022/03/21 09:37:23;;;;;;;11.43;7.07;;;;;;;24.54;17.69;100091.91;4917788;29;20056;-50
2022/03/21 09:39:49;;;;;;;23.30;7.78;;;;;;;24.25;18.86;100089.53;4917784;29;20442;-51
2022/03/21 09:42:15;;;;;;;27.10;8.38;;;;;;;24.67;18.50;100082.56;4916428;29;20033;-51
2022/03/21 09:44:41;;;;;;;27.55;8.40;;;;;;;25.21;18.56;100071.63;4916321;29;20119;-51
2022/03/21 09:49:58;;;;;;;11.43;7.55;;;;;;;25.27;17.30;100073.25;4906796;29;20443;-50
2022/03/21 09:52:24;;;;;;;21.75;8.40;;;;;;;25.30;17.95;100077.28;4916198;29;20087;-51
2022/03/21 09:54:51;;;;;;;17.95;7.20;;;;;;;25.79;17.53;100076.03;4917510;29;20028;-50
2022/03/21 09:57:17;;;;;;;12.40;6.88;;;;;;;26.19;17.07;100071.78;4917438;29;20027;-51
2022/03/21 09:59:44;;;;;;;29.20;8.57;;;;;;;26.55;16.85;100056.41;4917405;29;20036;-51
2022/03/21 10:02:16;;;;;;;22.15;7.28;;;;;;;26.55;16.51;100061.78;4917309;29;20031;-51
2022/03/21 10:04:43;;;;;;;19.20;7.40;;;;;;;26.76;16.28;100062.56;4916007;29;20047;-50
2022/03/21 10:07:10;;;;;;;26.90;7.63;;;;;;;26.84;15.87;100055.81;4917274;29;20024;-50
2022/03/21 10:09:36;;;;;;;20.63;7.97;;;;;;;27.01;15.63;100064.38;4917254;29;20031;-51
2022/03/21 10:12:03;;;;;;;45.25;9.32;;;;;;;27.12;15.90;100057.03;4917153;29;20028;-51
2022/03/21 10:14:37;;;;;;;20.67;7.68;;;;;;;27.56;15.57;100055.50;4917152;29;20542;-51
2022/03/21 10:17:07;;;;;;;31.23;8.43;;;;;;;27.78;16.47;100053.19;4917360;29;20498;-51
2022/03/21 10:19:43;;;;;;;51.50;9.13;;;;;;;28.06;15.94;100065.13;4915532;29;20024;-51
2022/03/21 10:22:43;;;;;;;16.90;7.13;;;;;;;27.86;15.04;100052.56;4917031;29;20046;-51
2022/03/21 10:25:15;;;;;;;24.85;8.73;;;;;;;27.73;15.56;100053.22;4916880;29;20118;-51
2022/03/21 10:27:43;;;;;;;21.00;7.85;;;;;;;27.75;15.62;100045.66;4916994;29;20510;-51
2022/03/21 10:30:15;;;;;;;16.70;7.85;;;;;;;28.01;15.62;100049.00;4915541;29;20032;-51
2022/03/21 10:32:58;;;;;;;16.02;8.00;;;;;;;27.94;15.42;100055.81;4916871;29;20060;-51
2022/03/21 10:35:31;;;;;;;49.28;11.02;;;;;;;27.96;15.42;100038.22;4916483;29;20055;-51
2022/03/21 10:38:00;;;;;;;81.03;13.05;;;;;;;28.23;14.97;100048.53;4915402;29;20031;-51
2022/03/21 10:40:31;;;;;;;50.42;10.05;;;;;;;28.01;15.30;100049.00;4916633;29;20514;-51
2022/03/21 10:43:00;;;;;;;17.48;8.02;;;;;;;27.49;15.56;100043.13;4916605;29;20047;-52
2022/03/21 10:45:42;;;;;;;16.52;6.93;;;;;;;27.69;15.49;100034.09;4915233;29;20028;-51
2022/03/21 10:48:16;;;;;;;16.40;7.28;;;;;;;28.04;15.13;100029.53;4915249;29;20028;-52
2022/03/21 10:50:46;;;;;;;17.60;8.10;;;;;;;28.14;15.48;100036.72;4916569;29;20035;-50
2022/03/21 10:53:28;;;;;;;12.38;7.55;;;;;;;28.54;15.06;100039.34;4916470;29;20036;-50
2022/03/21 10:55:53;;;;;;;18.48;8.70;;;;;;;29.00;14.90;100030.72;4916433;29;20036;-51
2022/03/21 10:58:36;;;;;;;23.63;8.85;;;;;;;28.87;14.88;100027.59;4915095;29;20447;-51
2022/03/21 11:01:19;;;;;;;14.45;7.72;;;;;;;28.33;14.89;100030.59;4916370;29;20060;-51
2022/03/21 11:03:51;;;;;;;16.42;8.05;;;;;;;28.31;15.35;100016.59;4916249;29;20028;-52
2022/03/21 11:06:17;;;;;;;21.92;8.13;;;;;;;28.02;15.15;100020.91;4914950;29;20028;-51
2022/03/21 11:08:50;;;;;;;13.93;8.10;;;;;;;27.28;16.61;100020.06;4916168;29;20035;-51
2022/03/21 11:11:15;;;;;;;17.45;7.85;;;;;;;26.55;16.47;100010.63;4916109;29;20057;-52
2022/03/21 11:13:43;;;;;;;16.90;7.68;;;;;;;26.42;16.56;100008.50;4916088;29;20094;-51
2022/03/21 11:16:09;;;;;;;21.45;9.95;;;;;;;26.80;18.04;100012.47;4916038;29;20036;-52
2022/03/21 11:18:35;;;;;;;8.30;6.90;;;;;;;27.47;16.13;99988.69;4916045;29;20024;-51
2022/03/21 11:21:01;;;;;;;17.52;7.55;;;;;;;26.94;15.92;100003.78;4915545;29;20051;-51
2022/03/21 11:23:30;;;;;;;10.38;7.32;;;;;;;26.40;16.87;99994.50;4914669;29;20537;-51
2022/03/21 11:26:03;;;;;;;16.67;8.80;;;;;;;26.26;16.84;100005.06;4915795;29;20135;-52
2022/03/21 11:28:57;;;;;;;11.13;7.20;;;;;;;26.43;16.40;99986.69;4915985;29;20039;-51
2022/03/21 11:31:32;;;;;;;14.70;8.52;;;;;;;26.40;16.10;99992.63;4915848;29;20036;-51
2022/03/21 11:34:07;;;;;;;;;;;;;;;26.09;16.66;99981.91;4916236;29;20024;-51
2022/03/21 11:36:33;;;;;;;10.52;7.30;;;;;;;25.80;16.60;99989.72;4915842;29;19914;-51
2022/03/21 11:39:01;;;;;;;15.48;7.20;;;;;;;26.19;16.55;99970.34;4915793;29;20040;-51
2022/03/21 11:41:30;;;;;;;14.15;7.28;;;;;;;26.23;16.32;99965.22;4915738;29;20032;-51